sensor_id;sensor_type;location;lat;lon;timestamp;pressure;altitude;pressure_sealevel;temperature
15544;BMP180;7873;52.230;12.856;2023-04-03T00:01:16;102222.69;;;26.36
15544;BMP180;7873;52.230;12.856;2023-04-03T00:03:43;102228.09;;;26.36
15544;BMP180;7873;52.230;12.856;2023-04-03T00:06:11;102225.72;;;26.33
15544;BMP180;7873;52.230;12.856;2023-04-03T00:08:39;102224.84;;;26.33
15544;BMP180;7873;52.230;12.856;2023-04-03T00:11:07;102226.03;;;26.30
15544;BMP180;7873;52.230;12.856;2023-04-03T00:13:33;102221.13;;;26.26
15544;BMP180;7873;52.230;12.856;2023-04-03T00:16:01;102227.19;;;26.20
15544;BMP180;7873;52.230;12.856;2023-04-03T00:18:28;102220.75;;;26.13
15544;BMP180;7873;52.230;12.856;2023-04-03T00:20:55;102229.66;;;26.05
15544;BMP180;7873;52.230;12.856;2023-04-03T00:23:23;102230.44;;;25.98
15544;BMP180;7873;52.230;12.856;2023-04-03T00:25:50;102227.84;;;25.88
15544;BMP180;7873;52.230;12.856;2023-04-03T00:28:17;102230.31;;;25.82
15544;BMP180;7873;52.230;12.856;2023-04-03T00:30:44;102235.88;;;25.80
15544;BMP180;7873;52.230;12.856;2023-04-03T00:33:11;102227.38;;;25.75
15544;BMP180;7873;52.230;12.856;2023-04-03T00:35:38;102235.13;;;25.70
15544;BMP180;7873;52.230;12.856;2023-04-03T00:38:05;102233.63;;;25.68
15544;BMP180;7873;52.230;12.856;2023-04-03T00:40:36;102239.31;;;25.65
15544;BMP180;7873;52.230;12.856;2023-04-03T00:43:10;102242.03;;;25.65
15544;BMP180;7873;52.230;12.856;2023-04-03T00:45:39;102241.63;;;25.60
15544;BMP180;7873;52.230;12.856;2023-04-03T00:48:08;102248.34;;;25.56
15544;BMP180;7873;52.230;12.856;2023-04-03T00:50:39;102245.28;;;25.51
15544;BMP180;7873;52.230;12.856;2023-04-03T00:53:09;102246.44;;;25.49
15544;BMP180;7873;52.230;12.856;2023-04-03T00:55:39;102243.72;;;25.49
15544;BMP180;7873;52.230;12.856;2023-04-03T00:58:06;102247.44;;;25.48
15544;BMP180;7873;52.230;12.856;2023-04-03T01:00:33;102245.75;;;25.47
15544;BMP180;7873;52.230;12.856;2023-04-03T01:03:01;102253.00;;;25.46
15544;BMP180;7873;52.230;12.856;2023-04-03T01:05:28;102248.75;;;25.44
15544;BMP180;7873;52.230;12.856;2023-04-03T01:07:55;102245.38;;;25.42
15544;BMP180;7873;52.230;12.856;2023-04-03T01:10:22;102254.47;;;25.41
15544;BMP180;7873;52.230;12.856;2023-04-03T01:12:52;102254.63;;;25.39
15544;BMP180;7873;52.230;12.856;2023-04-03T01:15:21;102253.94;;;25.37
15544;BMP180;7873;52.230;12.856;2023-04-03T01:17:50;102252.78;;;25.40
15544;BMP180;7873;52.230;12.856;2023-04-03T01:23:42;102251.41;;;25.36
15544;BMP180;7873;52.230;12.856;2023-04-03T01:26:09;102252.09;;;25.38
15544;BMP180;7873;52.230;12.856;2023-04-03T01:28:38;102254.78;;;25.38
15544;BMP180;7873;52.230;12.856;2023-04-03T01:31:12;102251.22;;;25.37
15544;BMP180;7873;52.230;12.856;2023-04-03T01:33:42;102248.53;;;25.37
15544;BMP180;7873;52.230;12.856;2023-04-03T01:36:14;102257.63;;;25.36
15544;BMP180;7873;52.230;12.856;2023-04-03T01:38:41;102250.72;;;25.34
15544;BMP180;7873;52.230;12.856;2023-04-03T01:41:07;102252.72;;;25.32
15544;BMP180;7873;52.230;12.856;2023-04-03T01:43:34;102261.66;;;25.32
15544;BMP180;7873;52.230;12.856;2023-04-03T01:46:01;102259.25;;;25.29
15544;BMP180;7873;52.230;12.856;2023-04-03T01:48:27;102263.97;;;25.27
15544;BMP180;7873;52.230;12.856;2023-04-03T01:50:55;102265.13;;;25.25
15544;BMP180;7873;52.230;12.856;2023-04-03T01:53:22;102264.41;;;25.23
15544;BMP180;7873;52.230;12.856;2023-04-03T01:55:49;102273.69;;;25.20
15544;BMP180;7873;52.230;12.856;2023-04-03T01:58:15;102271.13;;;25.19
15544;BMP180;7873;52.230;12.856;2023-04-03T02:00:42;102273.00;;;25.18
15544;BMP180;7873;52.230;12.856;2023-04-03T02:03:09;102273.81;;;25.19
15544;BMP180;7873;52.230;12.856;2023-04-03T02:05:35;102276.63;;;25.17
15544;BMP180;7873;52.230;12.856;2023-04-03T02:08:04;102270.41;;;25.17
15544;BMP180;7873;52.230;12.856;2023-04-03T02:10:31;102278.63;;;25.15
15544;BMP180;7873;52.230;12.856;2023-04-03T02:12:58;102280.13;;;25.10
15544;BMP180;7873;52.230;12.856;2023-04-03T02:15:24;102280.56;;;25.05
15544;BMP180;7873;52.230;12.856;2023-04-03T02:17:51;102275.50;;;25.02
15544;BMP180;7873;52.230;12.856;2023-04-03T02:20:19;102281.19;;;24.99
15544;BMP180;7873;52.230;12.856;2023-04-03T02:22:45;102278.81;;;24.96
15544;BMP180;7873;52.230;12.856;2023-04-03T02:25:14;102287.16;;;24.93
15544;BMP180;7873;52.230;12.856;2023-04-03T02:27:40;102279.94;;;24.94
15544;BMP180;7873;52.230;12.856;2023-04-03T02:30:07;102288.88;;;24.94
15544;BMP180;7873;52.230;12.856;2023-04-03T02:32:36;102287.03;;;24.95
15544;BMP180;7873;52.230;12.856;2023-04-03T02:35:03;102288.72;;;24.96
15544;BMP180;7873;52.230;12.856;2023-04-03T02:37:29;102292.56;;;24.93
15544;BMP180;7873;52.230;12.856;2023-04-03T02:39:56;102284.47;;;24.93
15544;BMP180;7873;52.230;12.856;2023-04-03T02:42:24;102296.44;;;24.91
15544;BMP180;7873;52.230;12.856;2023-04-03T02:44:51;102300.13;;;24.90
15544;BMP180;7873;52.230;12.856;2023-04-03T02:47:18;102310.34;;;24.86
15544;BMP180;7873;52.230;12.856;2023-04-03T02:49:44;102310.66;;;24.83
15544;BMP180;7873;52.230;12.856;2023-04-03T02:52:11;102313.50;;;24.82
15544;BMP180;7873;52.230;12.856;2023-04-03T02:54:38;102313.50;;;24.82
15544;BMP180;7873;52.230;12.856;2023-04-03T02:57:05;102312.78;;;24.80
15544;BMP180;7873;52.230;12.856;2023-04-03T02:59:35;102310.09;;;24.80
15544;BMP180;7873;52.230;12.856;2023-04-03T03:02:02;102313.09;;;24.77
15544;BMP180;7873;52.230;12.856;2023-04-03T03:04:29;102314.28;;;24.74
15544;BMP180;7873;52.230;12.856;2023-04-03T03:06:55;102311.41;;;24.76
15544;BMP180;7873;52.230;12.856;2023-04-03T03:09:22;102312.41;;;24.75
15544;BMP180;7873;52.230;12.856;2023-04-03T03:11:49;102312.72;;;24.72
15544;BMP180;7873;52.230;12.856;2023-04-03T03:14:15;102318.22;;;24.70
15544;BMP180;7873;52.230;12.856;2023-04-03T03:16:43;102325.63;;;24.68
15544;BMP180;7873;52.230;12.856;2023-04-03T03:19:10;102326.78;;;24.66
15544;BMP180;7873;52.230;12.856;2023-04-03T03:21:37;102325.41;;;24.62
15544;BMP180;7873;52.230;12.856;2023-04-03T03:24:04;102325.66;;;24.59
15544;BMP180;7873;52.230;12.856;2023-04-03T03:26:31;102336.31;;;24.60
15544;BMP180;7873;52.230;12.856;2023-04-03T03:28:57;102329.22;;;24.59
15544;BMP180;7873;52.230;12.856;2023-04-03T03:31:24;102326.22;;;24.62
15544;BMP180;7873;52.230;12.856;2023-04-03T03:33:52;102323.97;;;24.58
15544;BMP180;7873;52.230;12.856;2023-04-03T03:36:19;102322.28;;;24.57
15544;BMP180;7873;52.230;12.856;2023-04-03T03:38:46;102330.66;;;24.54
15544;BMP180;7873;52.230;12.856;2023-04-03T03:41:12;102333.22;;;24.55
15544;BMP180;7873;52.230;12.856;2023-04-03T03:43:39;102322.97;;;24.59
15544;BMP180;7873;52.230;12.856;2023-04-03T03:46:06;102329.22;;;24.59
15544;BMP180;7873;52.230;12.856;2023-04-03T03:48:33;102327.66;;;24.57
15544;BMP180;7873;52.230;12.856;2023-04-03T03:51:01;102330.34;;;24.57
15544;BMP180;7873;52.230;12.856;2023-04-03T03:53:27;102326.97;;;24.55
15544;BMP180;7873;52.230;12.856;2023-04-03T03:55:54;102328.13;;;24.52
15544;BMP180;7873;52.230;12.856;2023-04-03T03:58:21;102329.66;;;24.55
15544;BMP180;7873;52.230;12.856;2023-04-03T04:00:48;102332.91;;;24.58
15544;BMP180;7873;52.230;12.856;2023-04-03T04:03:14;102326.66;;;24.58
15544;BMP180;7873;52.230;12.856;2023-04-03T04:05:41;102338.16;;;24.60
15544;BMP180;7873;52.230;12.856;2023-04-03T04:08:09;102335.59;;;24.58
15544;BMP180;7873;52.230;12.856;2023-04-03T04:10:37;102329.81;;;24.53
15544;BMP180;7873;52.230;12.856;2023-04-03T04:13:04;102332.22;;;24.56
15544;BMP180;7873;52.230;12.856;2023-04-03T04:15:31;102342.69;;;24.59
15544;BMP180;7873;52.230;12.856;2023-04-03T04:17:57;102336.44;;;24.59
15544;BMP180;7873;52.230;12.856;2023-04-03T04:20:24;102333.34;;;24.54
15544;BMP180;7873;52.230;12.856;2023-04-03T04:22:51;102337.06;;;24.43
15544;BMP180;7873;52.230;12.856;2023-04-03T04:25:19;102339.66;;;24.35
15544;BMP180;7873;52.230;12.856;2023-04-03T04:27:46;102340.44;;;24.45
15544;BMP180;7873;52.230;12.856;2023-04-03T04:30:13;102336.34;;;24.51
15544;BMP180;7873;52.230;12.856;2023-04-03T04:32:40;102342.75;;;24.40
15544;BMP180;7873;52.230;12.856;2023-04-03T04:35:07;102330.44;;;24.38
15544;BMP180;7873;52.230;12.856;2023-04-03T04:37:35;102346.59;;;24.38
15544;BMP180;7873;52.230;12.856;2023-04-03T04:40:02;102350.72;;;24.32
15544;BMP180;7873;52.230;12.856;2023-04-03T04:42:30;102346.19;;;24.23
15544;BMP180;7873;52.230;12.856;2023-04-03T04:44:56;102340.84;;;24.14
15544;BMP180;7873;52.230;12.856;2023-04-03T04:47:23;102357.28;;;24.11
15544;BMP180;7873;52.230;12.856;2023-04-03T04:49:50;102352.75;;;24.11
15544;BMP180;7873;52.230;12.856;2023-04-03T04:52:16;102358.44;;;24.08
15544;BMP180;7873;52.230;12.856;2023-04-03T04:54:43;102359.03;;;24.02
15544;BMP180;7873;52.230;12.856;2023-04-03T04:57:10;102361.84;;;24.01
15544;BMP180;7873;52.230;12.856;2023-04-03T04:59:38;102355.59;;;24.00
15544;BMP180;7873;52.230;12.856;2023-04-03T05:02:04;102364.13;;;23.96
15544;BMP180;7873;52.230;12.856;2023-04-03T05:04:31;102361.84;;;23.91
15544;BMP180;7873;52.230;12.856;2023-04-03T05:06:58;102360.28;;;23.89
15544;BMP180;7873;52.230;12.856;2023-04-03T05:09:25;102366.81;;;23.86
15544;BMP180;7873;52.230;12.856;2023-04-03T05:11:52;102369.50;;;23.86
15544;BMP180;7873;52.230;12.856;2023-04-03T05:14:19;102372.22;;;23.86
15544;BMP180;7873;52.230;12.856;2023-04-03T05:16:47;102372.34;;;23.85
15544;BMP180;7873;52.230;12.856;2023-04-03T05:19:14;102366.66;;;23.88
15544;BMP180;7873;52.230;12.856;2023-04-03T05:21:40;102373.75;;;23.89
15544;BMP180;7873;52.230;12.856;2023-04-03T05:24:07;102369.81;;;23.83
15544;BMP180;7873;52.230;12.856;2023-04-03T05:26:35;102366.69;;;23.69
15544;BMP180;7873;52.230;12.856;2023-04-03T05:29:02;102362.41;;;23.67
15544;BMP180;7873;52.230;12.856;2023-04-03T05:31:29;102361.72;;;23.65
15544;BMP180;7873;52.230;12.856;2023-04-03T05:33:57;102364.41;;;23.55
15544;BMP180;7873;52.230;12.856;2023-04-03T05:36:24;102376.53;;;23.40
15544;BMP180;7873;52.230;12.856;2023-04-03T05:38:51;102377.41;;;23.31
15544;BMP180;7873;52.230;12.856;2023-04-03T05:41:17;102379.94;;;23.23
15544;BMP180;7873;52.230;12.856;2023-04-03T05:43:44;102383.75;;;23.21
15544;BMP180;7873;52.230;12.856;2023-04-03T05:46:11;102385.59;;;23.30
15544;BMP180;7873;52.230;12.856;2023-04-03T05:48:39;102384.91;;;23.37
15544;BMP180;7873;52.230;12.856;2023-04-03T05:51:14;102382.22;;;23.37
15544;BMP180;7873;52.230;12.856;2023-04-03T05:53:43;102389.56;;;23.35
15544;BMP180;7873;52.230;12.856;2023-04-03T05:56:10;102381.78;;;23.32
15544;BMP180;7873;52.230;12.856;2023-04-03T05:58:36;102391.97;;;23.38
15544;BMP180;7873;52.230;12.856;2023-04-03T06:01:03;102390.28;;;23.37
15544;BMP180;7873;52.230;12.856;2023-04-03T06:03:31;102397.78;;;23.34
15544;BMP180;7873;52.230;12.856;2023-04-03T06:05:57;102395.63;;;23.28
15544;BMP180;7873;52.230;12.856;2023-04-03T06:08:25;102398.59;;;23.25
15544;BMP180;7873;52.230;12.856;2023-04-03T06:11:19;102405.97;;;23.23
15544;BMP180;7873;52.230;12.856;2023-04-03T06:13:48;102404.25;;;23.22
15544;BMP180;7873;52.230;12.856;2023-04-03T06:16:14;102401.69;;;23.20
15544;BMP180;7873;52.230;12.856;2023-04-03T06:18:42;102403.56;;;23.20
15544;BMP180;7873;52.230;12.856;2023-04-03T06:21:08;102401.97;;;23.17
15544;BMP180;7873;52.230;12.856;2023-04-03T06:23:36;102410.03;;;23.17
15544;BMP180;7873;52.230;12.856;2023-04-03T06:26:03;102410.19;;;23.16
15544;BMP180;7873;52.230;12.856;2023-04-03T06:28:30;102409.34;;;23.15
15544;BMP180;7873;52.230;12.856;2023-04-03T06:30:57;102414.88;;;23.14
15544;BMP180;7873;52.230;12.856;2023-04-03T06:33:24;102416.69;;;23.13
15544;BMP180;7873;52.230;12.856;2023-04-03T06:35:56;102422.22;;;23.12
15544;BMP180;7873;52.230;12.856;2023-04-03T06:38:23;102415.16;;;23.11
15544;BMP180;7873;52.230;12.856;2023-04-03T06:40:51;102422.31;;;23.10
15544;BMP180;7873;52.230;12.856;2023-04-03T06:43:19;102426.97;;;23.08
15544;BMP180;7873;52.230;12.856;2023-04-03T06:45:46;102432.47;;;23.07
15544;BMP180;7873;52.230;12.856;2023-04-03T06:48:13;102437.13;;;23.05
15544;BMP180;7873;52.230;12.856;2023-04-03T06:50:39;102430.22;;;23.02
15544;BMP180;7873;52.230;12.856;2023-04-03T06:53:06;102443.66;;;23.02
15544;BMP180;7873;52.230;12.856;2023-04-03T06:55:33;102435.88;;;22.99
15544;BMP180;7873;52.230;12.856;2023-04-03T06:58:01;102440.38;;;22.99
15544;BMP180;7873;52.230;12.856;2023-04-03T07:00:29;102440.38;;;22.99
15544;BMP180;7873;52.230;12.856;2023-04-03T07:02:56;102449.53;;;22.96
15544;BMP180;7873;52.230;12.856;2023-04-03T07:05:23;102449.53;;;22.96
15544;BMP180;7873;52.230;12.856;2023-04-03T07:07:50;102452.38;;;22.95
15544;BMP180;7873;52.230;12.856;2023-04-03T07:10:17;102452.50;;;22.93
15544;BMP180;7873;52.230;12.856;2023-04-03T07:12:44;102441.03;;;22.91
15544;BMP180;7873;52.230;12.856;2023-04-03T07:15:12;102453.50;;;22.92
15544;BMP180;7873;52.230;12.856;2023-04-03T07:17:39;102458.16;;;22.90
15544;BMP180;7873;52.230;12.856;2023-04-03T07:20:07;102464.53;;;22.89
15544;BMP180;7873;52.230;12.856;2023-04-03T07:22:35;102452.06;;;22.88
15544;BMP180;7873;52.230;12.856;2023-04-03T07:25:01;102458.44;;;22.87
15544;BMP180;7873;52.230;12.856;2023-04-03T07:27:29;102452.22;;;22.87
15544;BMP180;7873;52.230;12.856;2023-04-03T07:29:56;102463.81;;;22.87
15544;BMP180;7873;52.230;12.856;2023-04-03T07:32:24;102463.63;;;22.79
15544;BMP180;7873;52.230;12.856;2023-04-03T07:34:51;102462.31;;;22.74
15544;BMP180;7873;52.230;12.856;2023-04-03T07:37:18;102472.47;;;22.70
15544;BMP180;7873;52.230;12.856;2023-04-03T07:39:44;102472.22;;;22.73
15544;BMP180;7873;52.230;12.856;2023-04-03T07:42:11;102467.47;;;22.86
15544;BMP180;7873;52.230;12.856;2023-04-03T07:44:38;102473.63;;;22.98
15544;BMP180;7873;52.230;12.856;2023-04-03T07:47:05;102466.97;;;23.02
15544;BMP180;7873;52.230;12.856;2023-04-03T07:49:34;102465.50;;;22.88
15544;BMP180;7873;52.230;12.856;2023-04-03T07:52:03;102472.41;;;22.81
15544;BMP180;7873;52.230;12.856;2023-04-03T07:54:30;102471.97;;;22.76
15544;BMP180;7873;52.230;12.856;2023-04-03T07:56:57;102459.19;;;22.69
15544;BMP180;7873;52.230;12.856;2023-04-03T07:59:24;102471.91;;;22.67
15544;BMP180;7873;52.230;12.856;2023-04-03T08:01:51;102467.66;;;22.64
15544;BMP180;7873;52.230;12.856;2023-04-03T08:04:18;102465.94;;;22.63
15544;BMP180;7873;52.230;12.856;2023-04-03T08:06:46;102475.31;;;22.69
15544;BMP180;7873;52.230;12.856;2023-04-03T08:09:13;102476.34;;;22.77
15544;BMP180;7873;52.230;12.856;2023-04-03T08:11:41;102469.88;;;22.89
15544;BMP180;7873;52.230;12.856;2023-04-03T08:14:08;102459.06;;;23.00
15544;BMP180;7873;52.230;12.856;2023-04-03T08:16:40;102466.78;;;23.14
15544;BMP180;7873;52.230;12.856;2023-04-03T08:19:07;102476.44;;;23.26
15544;BMP180;7873;52.230;12.856;2023-04-03T08:21:34;102473.78;;;23.36
15544;BMP180;7873;52.230;12.856;2023-04-03T08:24:02;102476.91;;;23.41
15544;BMP180;7873;52.230;12.856;2023-04-03T08:26:29;102471.97;;;23.46
15544;BMP180;7873;52.230;12.856;2023-04-03T08:28:56;102470.84;;;23.48
15544;BMP180;7873;52.230;12.856;2023-04-03T08:31:23;102463.31;;;23.52
15544;BMP180;7873;52.230;12.856;2023-04-03T08:33:50;102467.59;;;23.54
15544;BMP180;7873;52.230;12.856;2023-04-03T08:36:18;102474.66;;;23.55
15544;BMP180;7873;52.230;12.856;2023-04-03T08:38:46;102476.09;;;23.59
15544;BMP180;7873;52.230;12.856;2023-04-03T08:41:18;102478.78;;;23.59
15544;BMP180;7873;52.230;12.856;2023-04-03T08:43:58;102461.66;;;23.60
15544;BMP180;7873;52.230;12.856;2023-04-03T08:46:35;102468.72;;;23.61
15544;BMP180;7873;52.230;12.856;2023-04-03T08:49:10;102461.25;;;23.65
15544;BMP180;7873;52.230;12.856;2023-04-03T08:51:44;102466.63;;;23.65
15544;BMP180;7873;52.230;12.856;2023-04-03T08:54:22;102466.75;;;23.63
15544;BMP180;7873;52.230;12.856;2023-04-03T08:56:51;102469.44;;;23.63
15544;BMP180;7873;52.230;12.856;2023-04-03T08:59:25;102468.03;;;23.59
15544;BMP180;7873;52.230;12.856;2023-04-03T09:01:53;102476.50;;;23.55
15544;BMP180;7873;52.230;12.856;2023-04-03T09:04:20;102475.22;;;23.49
15544;BMP180;7873;52.230;12.856;2023-04-03T09:06:50;102479.44;;;23.42
15544;BMP180;7873;52.230;12.856;2023-04-03T09:09:30;102473.78;;;23.36
15544;BMP180;7873;52.230;12.856;2023-04-03T09:12:04;102477.00;;;23.30
15544;BMP180;7873;52.230;12.856;2023-04-03T09:14:38;102467.50;;;23.26
15544;BMP180;7873;52.230;12.856;2023-04-03T09:17:12;102465.25;;;23.21
15544;BMP180;7873;52.230;12.856;2023-04-03T09:19:47;102464.50;;;23.19
15544;BMP180;7873;52.230;12.856;2023-04-03T09:22:17;102457.59;;;23.17
15544;BMP180;7873;52.230;12.856;2023-04-03T09:24:46;102461.41;;;23.14
15544;BMP180;7873;52.230;12.856;2023-04-03T09:27:14;102461.56;;;23.13
15544;BMP180;7873;52.230;12.856;2023-04-03T09:29:43;102466.31;;;23.09
15544;BMP180;7873;52.230;12.856;2023-04-03T09:32:19;102463.63;;;23.09
15544;BMP180;7873;52.230;12.856;2023-04-03T09:34:48;102479.75;;;23.09
15544;BMP180;7873;52.230;12.856;2023-04-03T09:37:34;102467.03;;;23.11
15544;BMP180;7873;52.230;12.856;2023-04-03T09:40:02;102475.81;;;23.13
15544;BMP180;7873;52.230;12.856;2023-04-03T09:42:31;102472.84;;;23.16
15544;BMP180;7873;52.230;12.856;2023-04-03T09:45:00;102465.25;;;23.21
15544;BMP180;7873;52.230;12.856;2023-04-03T09:47:28;102456.63;;;23.27
15544;BMP180;7873;52.230;12.856;2023-04-03T09:50:17;102466.72;;;23.35
15544;BMP180;7873;52.230;12.856;2023-04-03T09:52:46;102464.56;;;23.38
15544;BMP180;7873;52.230;12.856;2023-04-03T09:55:15;102465.28;;;23.40
15544;BMP180;7873;52.230;12.856;2023-04-03T09:57:43;102472.25;;;23.43
15544;BMP180;7873;52.230;12.856;2023-04-03T10:00:21;102469.44;;;23.44
15544;BMP180;7873;52.230;12.856;2023-04-03T10:02:51;102463.19;;;23.44
15544;BMP180;7873;52.230;12.856;2023-04-03T10:05:27;102469.53;;;23.43
15544;BMP180;7873;52.230;12.856;2023-04-03T10:08:08;102466.56;;;23.36
15544;BMP180;7873;52.230;12.856;2023-04-03T10:10:36;102462.56;;;23.31
15544;BMP180;7873;52.230;12.856;2023-04-03T10:13:09;102454.22;;;23.24
15544;BMP180;7873;52.230;12.856;2023-04-03T10:15:40;102452.78;;;23.20
15544;BMP180;7873;52.230;12.856;2023-04-03T10:18:22;102450.38;;;23.17
15544;BMP180;7873;52.230;12.856;2023-04-03T10:20:56;102459.69;;;23.13
15544;BMP180;7873;52.230;12.856;2023-04-03T10:23:28;102447.47;;;23.09
15544;BMP180;7873;52.230;12.856;2023-04-03T10:26:08;102441.41;;;23.07
15544;BMP180;7873;52.230;12.856;2023-04-03T10:28:43;102443.50;;;23.04
15544;BMP180;7873;52.230;12.856;2023-04-03T10:31:15;102451.84;;;23.01
15544;BMP180;7873;52.230;12.856;2023-04-03T10:33:53;102437.56;;;23.00
15544;BMP180;7873;52.230;12.856;2023-04-03T10:36:34;102433.03;;;23.01
15544;BMP180;7873;52.230;12.856;2023-04-03T10:39:13;102435.59;;;23.02
15544;BMP180;7873;52.230;12.856;2023-04-03T10:41:51;102423.84;;;23.03
15544;BMP180;7873;52.230;12.856;2023-04-03T10:44:30;102427.97;;;23.07
15544;BMP180;7873;52.230;12.856;2023-04-03T10:47:02;102424.28;;;23.08
15544;BMP180;7873;52.230;12.856;2023-04-03T10:49:39;102430.13;;;23.13
15544;BMP180;7873;52.230;12.856;2023-04-03T10:52:15;102418.09;;;23.17
15544;BMP180;7873;52.230;12.856;2023-04-03T10:54:48;102418.41;;;23.24
15544;BMP180;7873;52.230;12.856;2023-04-03T10:57:16;102410.06;;;23.27
15544;BMP180;7873;52.230;12.856;2023-04-03T10:59:47;102417.72;;;23.31
15544;BMP180;7873;52.230;12.856;2023-04-03T11:02:23;102411.25;;;23.34
15544;BMP180;7873;52.230;12.856;2023-04-03T11:04:53;102401.19;;;23.36
15544;BMP180;7873;52.230;12.856;2023-04-03T11:07:26;102403.72;;;23.37
15544;BMP180;7873;52.230;12.856;2023-04-03T11:09:56;102399.34;;;23.36
15544;BMP180;7873;52.230;12.856;2023-04-03T11:12:27;102394.13;;;23.35
15544;BMP180;7873;52.230;12.856;2023-04-03T11:14:57;102396.22;;;23.31
15544;BMP180;7873;52.230;12.856;2023-04-03T11:17:28;102394.09;;;23.25
15544;BMP180;7873;52.230;12.856;2023-04-03T11:20:03;102395.38;;;23.21
15544;BMP180;7873;52.230;12.856;2023-04-03T11:22:35;102399.28;;;23.17
15544;BMP180;7873;52.230;12.856;2023-04-03T11:25:12;102395.19;;;23.13
15544;BMP180;7873;52.230;12.856;2023-04-03T11:27:43;102387.28;;;23.12
15544;BMP180;7873;52.230;12.856;2023-04-03T11:30:19;102395.44;;;23.10
15544;BMP180;7873;52.230;12.856;2023-04-03T11:33:03;102391.91;;;23.10
15544;BMP180;7873;52.230;12.856;2023-04-03T11:35:32;102388.47;;;23.08
15544;BMP180;7873;52.230;12.856;2023-04-03T11:38:01;102381.41;;;23.07
15544;BMP180;7873;52.230;12.856;2023-04-03T11:40:33;102386.78;;;23.07
15544;BMP180;7873;52.230;12.856;2023-04-03T11:43:07;102387.78;;;23.06
15544;BMP180;7873;52.230;12.856;2023-04-03T11:45:40;102384.97;;;23.07
15544;BMP180;7873;52.230;12.856;2023-04-03T11:51:38;102379.31;;;23.10
15544;BMP180;7873;52.230;12.856;2023-04-03T12:00:48;102372.28;;;23.19
15544;BMP180;7873;52.230;12.856;2023-04-03T12:06:59;102379.94;;;23.23
15544;BMP180;7873;52.230;12.856;2023-04-03T12:09:30;102382.47;;;23.25
15544;BMP180;7873;52.230;12.856;2023-04-03T12:12:00;102373.41;;;23.26
15544;BMP180;7873;52.230;12.856;2023-04-03T12:14:28;102384.06;;;23.27
15544;BMP180;7873;52.230;12.856;2023-04-03T12:16:57;102378.69;;;23.27
15544;BMP180;7873;52.230;12.856;2023-04-03T12:19:30;102374.28;;;23.26
15544;BMP180;7873;52.230;12.856;2023-04-03T12:22:07;102368.47;;;23.21
15544;BMP180;7873;52.230;12.856;2023-04-03T12:24:35;102364.22;;;23.19
15544;BMP180;7873;52.230;12.856;2023-04-03T12:27:20;102362.81;;;23.15
15544;BMP180;7873;52.230;12.856;2023-04-03T12:29:53;102360.41;;;23.12
15544;BMP180;7873;52.230;12.856;2023-04-03T12:32:36;102360.63;;;23.09
15544;BMP180;7873;52.230;12.856;2023-04-03T12:35:18;102355.53;;;23.06
15544;BMP180;7873;52.230;12.856;2023-04-03T12:38:10;102357.66;;;23.02
15544;BMP180;7873;52.230;12.856;2023-04-03T12:40:45;102358.66;;;23.01
15544;BMP180;7873;52.230;12.856;2023-04-03T12:43:23;102355.25;;;22.99
15544;BMP180;7873;52.230;12.856;2023-04-03T12:45:59;102351.84;;;22.97
15544;BMP180;7873;52.230;12.856;2023-04-03T12:48:31;102342.94;;;22.97
15544;BMP180;7873;52.230;12.856;2023-04-03T12:50:59;102343.06;;;22.86
15544;BMP180;7873;52.230;12.856;2023-04-03T12:53:27;102351.41;;;22.92
15544;BMP180;7873;52.230;12.856;2023-04-03T12:55:57;102349.16;;;22.88
15544;BMP180;7873;52.230;12.856;2023-04-03T12:58:26;102348.94;;;22.80
15544;BMP180;7873;52.230;12.856;2023-04-03T13:01:00;102356.19;;;22.79
15544;BMP180;7873;52.230;12.856;2023-04-03T13:03:27;102351.22;;;22.75
15544;BMP180;7873;52.230;12.856;2023-04-03T13:05:59;102360.13;;;22.75
15544;BMP180;7873;52.230;12.856;2023-04-03T13:08:26;102344.72;;;22.77
15544;BMP180;7873;52.230;12.856;2023-04-03T13:10:55;102347.81;;;22.73
15544;BMP180;7873;52.230;12.856;2023-04-03T13:13:23;102343.72;;;22.69
15544;BMP180;7873;52.230;12.856;2023-04-03T13:15:52;102346.94;;;22.72
15544;BMP180;7873;52.230;12.856;2023-04-03T13:18:25;102345.69;;;22.67
15544;BMP180;7873;52.230;12.856;2023-04-03T13:20:53;102339.19;;;22.39
15544;BMP180;7873;52.230;12.856;2023-04-03T13:23:22;102335.00;;;22.26
15544;BMP180;7873;52.230;12.856;2023-04-03T13:25:49;102339.66;;;22.24
15544;BMP180;7873;52.230;12.856;2023-04-03T13:28:19;102336.69;;;22.27
15544;BMP180;7873;52.230;12.856;2023-04-03T13:31:02;102341.41;;;22.34
15544;BMP180;7873;52.230;12.856;2023-04-03T13:33:31;102340.34;;;22.46
15544;BMP180;7873;52.230;12.856;2023-04-03T13:36:02;102342.31;;;22.44
15544;BMP180;7873;52.230;12.856;2023-04-03T13:38:32;102337.09;;;22.43
15544;BMP180;7873;52.230;12.856;2023-04-03T13:41:04;102337.50;;;22.38
15544;BMP180;7873;52.230;12.856;2023-04-03T13:43:32;102333.16;;;22.26
15544;BMP180;7873;52.230;12.856;2023-04-03T13:46:05;102336.31;;;22.11
15544;BMP180;7873;52.230;12.856;2023-04-03T13:48:38;102331.03;;;22.00
15544;BMP180;7873;52.230;12.856;2023-04-03T13:51:13;102335.34;;;22.12
15544;BMP180;7873;52.230;12.856;2023-04-03T13:53:46;102328.72;;;22.16
15544;BMP180;7873;52.230;12.856;2023-04-03T13:56:19;102326.13;;;21.64
15544;BMP180;7873;52.230;12.856;2023-04-03T13:59:01;102323.84;;;21.49
15544;BMP180;7873;52.230;12.856;2023-04-03T14:01:37;102325.41;;;21.62
15544;BMP180;7873;52.230;12.856;2023-04-03T14:04:13;102326.91;;;21.76
15544;BMP180;7873;52.230;12.856;2023-04-03T14:06:41;102331.53;;;21.85
15544;BMP180;7873;52.230;12.856;2023-04-03T14:09:09;102337.19;;;21.91
15544;BMP180;7873;52.230;12.856;2023-04-03T14:11:36;102339.75;;;21.93
15544;BMP180;7873;52.230;12.856;2023-04-03T14:14:11;102334.72;;;21.99
15544;BMP180;7873;52.230;12.856;2023-04-03T14:16:41;102323.84;;;22.00
15544;BMP180;7873;52.230;12.856;2023-04-03T14:19:18;102328.00;;;22.14
15544;BMP180;7873;52.230;12.856;2023-04-03T14:21:46;102329.63;;;22.26
15544;BMP180;7873;52.230;12.856;2023-04-03T14:24:14;102336.13;;;22.44
15544;BMP180;7873;52.230;12.856;2023-04-03T14:26:42;102335.22;;;22.64